DLH813G UBBB-EDDK
Flight info
| Callsign | DLH813G |
|---|---|
| Flight time | 2h 45m |
| Altitude | 28000 |
| Route | RASAM N199 LUSAL/N0459F360 M11 MATAL/N0460F380 M11 REBLO/N0429F280 R317 DELEL M11 EKTES R317 TBN W71 TEMEL M11 ARLAT W71 IPSAT M11 ARSUG W71 ERKOS M11 EMLAD W71 OSDUT M11 TERME W71 CRM L746 ODERO/N0451F380 T86 MATEL T746 ARGES DCT TOSVI DCT NERDI DCT TEGRI DCT RAKFA DCT ABETI DCT GESGI DCT RENKA L610 STAUB/N0405F240 L610 IBAGA Y101 OSBIT L984 ASKIK T840 GULKO GULK31 |
| Aircraft | A20N/M-SDE2E3FGHIRWXY/LB1 |
Departure
| Time | 2026-05-05 10:27 |
|---|---|
| Airport | Heydar Aliyev International Airport (UBBB) |
Arrival
| Time | 2026-05-05 13:12 |
|---|---|
| Airport | Cologne Bonn Airport (EDDK) |
| Time | Latitude | Longitude | Altitude | Speed | Heading |
|---|---|---|---|---|---|
| 2026-05-05 09:56 | 40.46673 | 50.05087 | -7 ft | 0 kts | 144° |
| 2026-05-05 10:18 | 40.46737 | 50.05018 | -8 ft | 0 kts | 19° |
| 2026-05-05 10:21 | 40.46746 | 50.05025 | -8 ft | 2 kts | 51° |
| 2026-05-05 10:21 | 40.46791 | 50.05139 | -9 ft | 2 kts | 55° |
| 2026-05-05 10:22 | 40.46826 | 50.05201 | -10 ft | 16 kts | 58° |
| 2026-05-05 10:22 | 40.46839 | 50.05354 | -10 ft | 10 kts | 111° |
| 2026-05-05 10:22 | 40.46780 | 50.05413 | -9 ft | 11 kts | 148° |
| 2026-05-05 10:22 | 40.46692 | 50.05461 | -7 ft | 26 kts | 153° |
| 2026-05-05 10:23 | 40.46558 | 50.05574 | -5 ft | 17 kts | 143° |
| 2026-05-05 10:23 | 40.46517 | 50.05701 | -4 ft | 15 kts | 86° |
| 2026-05-05 10:23 | 40.46522 | 50.05833 | -4 ft | 13 kts | 87° |
| 2026-05-05 10:23 | 40.46498 | 50.05953 | -4 ft | 11 kts | 131° |
| 2026-05-05 10:24 | 40.46461 | 50.06070 | -4 ft | 9 kts | 125° |
| 2026-05-05 10:24 | 40.46333 | 50.06088 | -7 ft | 45 kts | 172° |
| 2026-05-05 10:24 | 40.46104 | 50.06096 | -9 ft | 28 kts | 179° |
| 2026-05-05 10:24 | 40.45940 | 50.06101 | -10 ft | 20 kts | 179° |
| 2026-05-05 10:25 | 40.45800 | 50.06102 | -10 ft | 20 kts | 179° |
| 2026-05-05 10:25 | 40.45740 | 50.06104 | -10 ft | 0 kts | 178° |
| 2026-05-05 10:25 | 40.45732 | 50.06104 | -10 ft | 6 kts | 178° |
| 2026-05-05 10:25 | 40.45655 | 50.06182 | -10 ft | 18 kts | 99° |
| 2026-05-05 10:26 | 40.45698 | 50.06316 | -10 ft | 16 kts | 25° |
| 2026-05-05 10:26 | 40.45838 | 50.06321 | -10 ft | 40 kts | 359° |
| 2026-05-05 10:26 | 40.46381 | 50.06316 | -5 ft | 111 kts | 359° |
| 2026-05-05 10:26 | 40.47308 | 50.06311 | 208 ft | 147 kts | 360° |
| 2026-05-05 10:27 | 40.48376 | 50.06296 | 811 ft | 159 kts | 359° |
| 2026-05-05 10:27 | 40.49530 | 50.06208 | 1419 ft | 179 kts | 354° |
| 2026-05-05 10:27 | 40.50795 | 50.05922 | 2084 ft | 195 kts | 348° |
| 2026-05-05 10:27 | 40.52164 | 50.05499 | 2687 ft | 213 kts | 350° |
| 2026-05-05 10:28 | 40.53692 | 50.05122 | 3298 ft | 230 kts | 351° |
| 2026-05-05 10:28 | 40.55273 | 50.04737 | 4088 ft | 239 kts | 351° |
| 2026-05-05 10:28 | 40.56905 | 50.04343 | 5025 ft | 242 kts | 351° |
| 2026-05-05 10:28 | 40.58556 | 50.03942 | 5933 ft | 245 kts | 348° |
| 2026-05-05 10:29 | 40.60110 | 50.03052 | 6784 ft | 254 kts | 324° |
| 2026-05-05 10:29 | 40.61237 | 50.01246 | 7454 ft | 265 kts | 300° |
| 2026-05-05 10:29 | 40.61642 | 49.98876 | 7855 ft | 277 kts | 277° |
| 2026-05-05 10:29 | 40.61662 | 49.96310 | 7959 ft | 279 kts | 276° |
| 2026-05-05 10:30 | 40.61666 | 49.93801 | 7966 ft | 279 kts | 276° |
| 2026-05-05 10:30 | 40.61680 | 49.91253 | 7970 ft | 278 kts | 276° |
| 2026-05-05 10:30 | 40.61702 | 49.88686 | 7971 ft | 278 kts | 276° |
| 2026-05-05 10:30 | 40.61731 | 49.86143 | 7972 ft | 278 kts | 276° |
| 2026-05-05 10:31 | 40.61763 | 49.83598 | 7972 ft | 278 kts | 276° |
| 2026-05-05 10:31 | 40.61795 | 49.81059 | 7973 ft | 278 kts | 277° |
| 2026-05-05 10:31 | 40.61827 | 49.78529 | 7973 ft | 278 kts | 277° |
| 2026-05-05 10:31 | 40.61854 | 49.75995 | 7981 ft | 280 kts | 276° |
| 2026-05-05 10:32 | 40.61844 | 49.73391 | 8380 ft | 289 kts | 275° |
| 2026-05-05 10:32 | 40.61819 | 49.70783 | 9342 ft | 287 kts | 275° |
| 2026-05-05 10:32 | 40.61792 | 49.68185 | 10212 ft | 288 kts | 275° |
| 2026-05-05 10:32 | 40.61770 | 49.65509 | 10778 ft | 300 kts | 275° |
| 2026-05-05 10:33 | 40.61750 | 49.62707 | 11158 ft | 318 kts | 275° |
| 2026-05-05 10:33 | 40.61727 | 49.59711 | 11506 ft | 336 kts | 274° |
| 2026-05-05 10:33 | 40.61699 | 49.56556 | 11939 ft | 350 kts | 274° |
| 2026-05-05 10:33 | 40.61666 | 49.53340 | 12637 ft | 355 kts | 274° |
| 2026-05-05 10:34 | 40.61631 | 49.50121 | 13373 ft | 357 kts | 274° |
| 2026-05-05 10:34 | 40.61595 | 49.46871 | 14070 ft | 361 kts | 274° |
| 2026-05-05 10:34 | 40.61560 | 49.43568 | 14747 ft | 365 kts | 274° |
| 2026-05-05 10:34 | 40.61523 | 49.40200 | 15417 ft | 368 kts | 274° |
| 2026-05-05 10:35 | 40.61485 | 49.36837 | 16063 ft | 372 kts | 274° |
| 2026-05-05 10:35 | 40.61446 | 49.33431 | 16693 ft | 375 kts | 273° |
| 2026-05-05 10:35 | 40.61404 | 49.29993 | 17302 ft | 379 kts | 273° |
| 2026-05-05 10:35 | 40.61361 | 49.26536 | 17899 ft | 383 kts | 273° |
| 2026-05-05 10:36 | 40.61318 | 49.23054 | 18479 ft | 386 kts | 273° |
| 2026-05-05 10:36 | 40.61274 | 49.19535 | 19044 ft | 389 kts | 273° |
| 2026-05-05 10:36 | 40.61218 | 49.15933 | 19602 ft | 393 kts | 272° |
| 2026-05-05 10:36 | 40.61154 | 49.12362 | 20143 ft | 396 kts | 272° |
| 2026-05-05 10:37 | 40.61086 | 49.08751 | 20679 ft | 399 kts | 272° |
| 2026-05-05 10:37 | 40.61016 | 49.05073 | 21212 ft | 402 kts | 272° |
| 2026-05-05 10:37 | 40.60945 | 49.01409 | 21732 ft | 406 kts | 272° |
| 2026-05-05 10:37 | 40.60871 | 48.97717 | 22243 ft | 409 kts | 272° |
| 2026-05-05 10:38 | 40.60796 | 48.93981 | 22746 ft | 412 kts | 272° |
| 2026-05-05 10:38 | 40.60719 | 48.90164 | 23247 ft | 415 kts | 272° |
| 2026-05-05 10:38 | 40.60641 | 48.86401 | 23725 ft | 418 kts | 272° |
| 2026-05-05 10:38 | 40.60560 | 48.82551 | 24195 ft | 421 kts | 272° |
| 2026-05-05 10:39 | 40.60478 | 48.78750 | 24643 ft | 424 kts | 272° |
| 2026-05-05 10:39 | 40.60394 | 48.74866 | 25086 ft | 427 kts | 272° |
| 2026-05-05 10:39 | 40.60307 | 48.70928 | 25518 ft | 430 kts | 272° |
| 2026-05-05 10:39 | 40.60219 | 48.67003 | 25935 ft | 432 kts | 272° |
| 2026-05-05 10:40 | 40.60129 | 48.63072 | 26342 ft | 435 kts | 272° |
| 2026-05-05 10:40 | 40.60038 | 48.59106 | 26732 ft | 438 kts | 272° |
| 2026-05-05 10:40 | 40.59944 | 48.55107 | 27112 ft | 440 kts | 272° |
| 2026-05-05 10:40 | 40.59848 | 48.51083 | 27484 ft | 443 kts | 272° |
| 2026-05-05 10:41 | 40.59749 | 48.47017 | 27839 ft | 445 kts | 272° |
| 2026-05-05 10:41 | 40.59649 | 48.42933 | 28175 ft | 448 kts | 272° |
| 2026-05-05 10:41 | 40.59547 | 48.38877 | 28497 ft | 450 kts | 272° |
| 2026-05-05 10:41 | 40.59443 | 48.34771 | 28805 ft | 452 kts | 271° |
| 2026-05-05 10:42 | 40.59227 | 48.26508 | 29361 ft | 456 kts | 271° |
| 2026-05-05 10:42 | 40.59114 | 48.22327 | 29626 ft | 458 kts | 271° |
| 2026-05-05 10:42 | 40.59004 | 48.18208 | 29918 ft | 458 kts | 271° |
| 2026-05-05 10:43 | 40.58890 | 48.13994 | 30275 ft | 457 kts | 271° |
| 2026-05-05 10:43 | 40.58777 | 48.09855 | 30619 ft | 456 kts | 271° |
| 2026-05-05 10:43 | 40.58661 | 48.05693 | 30939 ft | 455 kts | 271° |
| 2026-05-05 10:43 | 40.58544 | 48.01592 | 31230 ft | 455 kts | 271° |
| 2026-05-05 10:44 | 40.58429 | 47.97428 | 31514 ft | 454 kts | 272° |
| 2026-05-05 10:44 | 40.58423 | 47.93330 | 31798 ft | 452 kts | 275° |
| 2026-05-05 10:44 | 40.58543 | 47.89189 | 32085 ft | 451 kts | 276° |
| 2026-05-05 10:44 | 40.58683 | 47.85081 | 32363 ft | 450 kts | 276° |
| 2026-05-05 10:45 | 40.58823 | 47.80966 | 32638 ft | 450 kts | 276° |
| 2026-05-05 10:45 | 40.58958 | 47.76931 | 32900 ft | 449 kts | 276° |
| 2026-05-05 10:45 | 40.59093 | 47.72805 | 33158 ft | 449 kts | 276° |
| 2026-05-05 10:45 | 40.59224 | 47.68727 | 33409 ft | 449 kts | 276° |
| 2026-05-05 10:46 | 40.59352 | 47.64641 | 33652 ft | 448 kts | 276° |
| 2026-05-05 10:46 | 40.59479 | 47.60545 | 33894 ft | 448 kts | 276° |
| 2026-05-05 10:46 | 40.59604 | 47.56447 | 34134 ft | 447 kts | 276° |
| 2026-05-05 10:46 | 40.59726 | 47.52416 | 34370 ft | 447 kts | 276° |
| 2026-05-05 10:47 | 40.59847 | 47.48349 | 34600 ft | 446 kts | 276° |
| 2026-05-05 10:47 | 40.60001 | 47.43137 | 34874 ft | 446 kts | 276° |
| 2026-05-05 10:47 | 40.60236 | 47.34972 | 35306 ft | 446 kts | 275° |
| 2026-05-05 10:47 | 40.60459 | 47.26920 | 35727 ft | 445 kts | 275° |
| 2026-05-05 10:48 | 40.60703 | 47.18813 | 36140 ft | 444 kts | 277° |
| 2026-05-05 10:48 | 40.61326 | 47.10802 | 36458 ft | 441 kts | 281° |
| 2026-05-05 10:48 | 40.62203 | 47.02783 | 36611 ft | 443 kts | 282° |
| 2026-05-05 10:48 | 40.63101 | 46.94718 | 36717 ft | 445 kts | 281° |
| 2026-05-05 10:49 | 40.63947 | 46.86728 | 36869 ft | 447 kts | 281° |
| 2026-05-05 10:49 | 40.64771 | 46.78618 | 37051 ft | 448 kts | 281° |
| 2026-05-05 10:49 | 40.65584 | 46.70451 | 37217 ft | 448 kts | 281° |
| 2026-05-05 10:49 | 40.66381 | 46.62380 | 37357 ft | 449 kts | 281° |
| 2026-05-05 10:50 | 40.67180 | 46.54253 | 37487 ft | 450 kts | 281° |
| 2026-05-05 10:50 | 40.67983 | 46.46038 | 37620 ft | 451 kts | 281° |
| 2026-05-05 10:50 | 40.68781 | 46.37818 | 37742 ft | 452 kts | 281° |
| 2026-05-05 10:50 | 40.69561 | 46.29700 | 37848 ft | 453 kts | 280° |
| 2026-05-05 10:51 | 40.70332 | 46.21590 | 37940 ft | 453 kts | 280° |
| 2026-05-05 10:51 | 40.71889 | 46.05078 | 37973 ft | 455 kts | 280° |
| 2026-05-05 10:52 | 40.73420 | 45.88607 | 37974 ft | 455 kts | 280° |
| 2026-05-05 10:52 | 40.74934 | 45.72045 | 37973 ft | 455 kts | 280° |
| 2026-05-05 10:53 | 40.76412 | 45.55571 | 37974 ft | 455 kts | 280° |
| 2026-05-05 10:53 | 40.77506 | 45.38968 | 37973 ft | 456 kts | 277° |
| 2026-05-05 10:54 | 40.78182 | 45.22439 | 37973 ft | 457 kts | 276° |
| 2026-05-05 10:54 | 40.78902 | 45.05707 | 37974 ft | 457 kts | 276° |
| 2026-05-05 10:55 | 40.79615 | 44.89058 | 37974 ft | 457 kts | 276° |
| 2026-05-05 10:55 | 40.80300 | 44.72427 | 37973 ft | 457 kts | 276° |
| 2026-05-05 10:56 | 40.80964 | 44.55695 | 37973 ft | 457 kts | 276° |
| 2026-05-05 10:56 | 40.81601 | 44.39027 | 37973 ft | 457 kts | 276° |
| 2026-05-05 10:57 | 40.82212 | 44.22331 | 37973 ft | 457 kts | 276° |
| 2026-05-05 10:57 | 40.82796 | 44.05711 | 37973 ft | 457 kts | 276° |
| 2026-05-05 10:58 | 40.83310 | 43.91627 | 37975 ft | 457 kts | 272° |
| 2026-05-05 10:58 | 40.83813 | 43.74818 | 37976 ft | 458 kts | 272° |
| 2026-05-05 10:59 | 40.84519 | 43.58115 | 37976 ft | 458 kts | 275° |
| 2026-05-05 10:59 | 40.85529 | 43.41399 | 37975 ft | 458 kts | 275° |
| 2026-05-05 11:00 | 40.86438 | 43.24813 | 37975 ft | 458 kts | 274° |
| 2026-05-05 11:00 | 40.87310 | 43.08032 | 37975 ft | 459 kts | 274° |
| 2026-05-05 11:01 | 40.88164 | 42.91234 | 37975 ft | 459 kts | 274° |
| 2026-05-05 11:01 | 40.88989 | 42.74551 | 37975 ft | 459 kts | 274° |
| 2026-05-05 11:02 | 40.89799 | 42.57673 | 37975 ft | 459 kts | 274° |
| 2026-05-05 11:02 | 40.90576 | 42.40962 | 37976 ft | 459 kts | 274° |
| 2026-05-05 11:03 | 40.91333 | 42.24134 | 37976 ft | 459 kts | 273° |
| 2026-05-05 11:03 | 40.92059 | 42.07426 | 37976 ft | 459 kts | 273° |
| 2026-05-05 11:04 | 40.92764 | 41.90688 | 37976 ft | 459 kts | 273° |
| 2026-05-05 11:04 | 40.93450 | 41.73840 | 37977 ft | 459 kts | 273° |
| 2026-05-05 11:05 | 40.94106 | 41.57084 | 37976 ft | 459 kts | 273° |
| 2026-05-05 11:05 | 40.94741 | 41.40260 | 37976 ft | 459 kts | 273° |
| 2026-05-05 11:06 | 40.95347 | 41.23521 | 37975 ft | 459 kts | 272° |
| 2026-05-05 11:06 | 40.95934 | 41.06618 | 37975 ft | 459 kts | 272° |
| 2026-05-05 11:07 | 40.96491 | 40.89855 | 37976 ft | 459 kts | 272° |
| 2026-05-05 11:07 | 40.97028 | 40.73112 | 37977 ft | 459 kts | 272° |
| 2026-05-05 11:08 | 40.97543 | 40.56216 | 37977 ft | 459 kts | 272° |
| 2026-05-05 11:08 | 40.98027 | 40.39475 | 37977 ft | 459 kts | 272° |
| 2026-05-05 11:09 | 40.98487 | 40.22620 | 37978 ft | 459 kts | 272° |
| 2026-05-05 11:09 | 40.98922 | 40.05817 | 37978 ft | 459 kts | 272° |
| 2026-05-05 11:10 | 40.99325 | 39.89077 | 37977 ft | 459 kts | 272° |
| 2026-05-05 11:10 | 41.00092 | 39.72292 | 37982 ft | 459 kts | 277° |
| 2026-05-05 11:11 | 41.01826 | 39.55546 | 37978 ft | 459 kts | 278° |
| 2026-05-05 11:11 | 41.03433 | 39.38874 | 37977 ft | 459 kts | 277° |
| 2026-05-05 11:12 | 41.04959 | 39.22208 | 37978 ft | 459 kts | 277° |
| 2026-05-05 11:12 | 41.06492 | 39.05498 | 37978 ft | 459 kts | 277° |
| 2026-05-05 11:13 | 41.08035 | 38.88784 | 37978 ft | 459 kts | 277° |
| 2026-05-05 11:13 | 41.09544 | 38.72026 | 37978 ft | 459 kts | 277° |
| 2026-05-05 11:14 | 41.11019 | 38.55352 | 37978 ft | 459 kts | 277° |
| 2026-05-05 11:14 | 41.12428 | 38.38597 | 37978 ft | 459 kts | 276° |
| 2026-05-05 11:15 | 41.13779 | 38.21972 | 37977 ft | 459 kts | 276° |
| 2026-05-05 11:15 | 41.15152 | 38.05259 | 37977 ft | 459 kts | 276° |
| 2026-05-05 11:16 | 41.16478 | 37.88490 | 37977 ft | 459 kts | 276° |
| 2026-05-05 11:16 | 41.17904 | 37.71700 | 37977 ft | 459 kts | 276° |
| 2026-05-05 11:17 | 41.19158 | 37.54897 | 37979 ft | 459 kts | 275° |
| 2026-05-05 11:17 | 41.20324 | 37.38156 | 37977 ft | 459 kts | 276° |
| 2026-05-05 11:18 | 41.21573 | 37.21317 | 37977 ft | 459 kts | 275° |
| 2026-05-05 11:18 | 41.22884 | 37.04558 | 37978 ft | 459 kts | 276° |
| 2026-05-05 11:19 | 41.24174 | 36.87766 | 37978 ft | 459 kts | 276° |
| 2026-05-05 11:19 | 41.25415 | 36.70976 | 37977 ft | 459 kts | 276° |
| 2026-05-05 11:20 | 41.26947 | 36.54203 | 37973 ft | 459 kts | 282° |
| 2026-05-05 11:20 | 41.30671 | 36.38038 | 37977 ft | 459 kts | 290° |
| 2026-05-05 11:21 | 41.34943 | 36.22130 | 37977 ft | 459 kts | 289° |
| 2026-05-05 11:21 | 41.39004 | 36.06054 | 37977 ft | 459 kts | 288° |
| 2026-05-05 11:22 | 41.42989 | 35.90086 | 37977 ft | 459 kts | 288° |
| 2026-05-05 11:22 | 41.46991 | 35.73983 | 37977 ft | 459 kts | 288° |
| 2026-05-05 11:23 | 41.50979 | 35.57830 | 37977 ft | 459 kts | 288° |
| 2026-05-05 11:23 | 41.54921 | 35.41753 | 37977 ft | 459 kts | 288° |
| 2026-05-05 11:24 | 41.58860 | 35.25550 | 37977 ft | 459 kts | 288° |
| 2026-05-05 11:24 | 41.62735 | 35.09484 | 37977 ft | 459 kts | 288° |
| 2026-05-05 11:25 | 41.66637 | 34.93228 | 37976 ft | 459 kts | 288° |
| 2026-05-05 11:25 | 41.70504 | 34.76994 | 37976 ft | 459 kts | 288° |
| 2026-05-05 11:26 | 41.74340 | 34.60753 | 37976 ft | 459 kts | 288° |
| 2026-05-05 11:26 | 41.78149 | 34.44598 | 37976 ft | 459 kts | 288° |
| 2026-05-05 11:27 | 41.81948 | 34.28321 | 37976 ft | 459 kts | 287° |
| 2026-05-05 11:27 | 41.85694 | 34.12092 | 37977 ft | 459 kts | 287° |
| 2026-05-05 11:28 | 41.89450 | 33.95748 | 37977 ft | 459 kts | 287° |
| 2026-05-05 11:28 | 41.93159 | 33.79478 | 37978 ft | 459 kts | 287° |
| 2026-05-05 11:29 | 41.96704 | 33.63083 | 37978 ft | 459 kts | 285° |
| 2026-05-05 11:29 | 41.99843 | 33.46457 | 37978 ft | 459 kts | 284° |
| 2026-05-05 11:30 | 42.02953 | 33.30055 | 37978 ft | 459 kts | 284° |
| 2026-05-05 11:30 | 42.06067 | 33.13566 | 37978 ft | 459 kts | 284° |
| 2026-05-05 11:31 | 42.09295 | 32.97068 | 37979 ft | 459 kts | 285° |
| 2026-05-05 11:31 | 42.12739 | 32.80638 | 37978 ft | 459 kts | 285° |
| 2026-05-05 11:32 | 42.16063 | 32.64187 | 37978 ft | 459 kts | 285° |
| 2026-05-05 11:32 | 42.19386 | 32.47624 | 37978 ft | 459 kts | 285° |
| 2026-05-05 11:33 | 42.22641 | 32.31210 | 37978 ft | 459 kts | 284° |
| 2026-05-05 11:33 | 42.25896 | 32.14561 | 37977 ft | 459 kts | 284° |
| 2026-05-05 11:34 | 42.29143 | 31.98028 | 37977 ft | 459 kts | 285° |
| 2026-05-05 11:34 | 42.32362 | 31.81508 | 37977 ft | 459 kts | 284° |
| 2026-05-05 11:35 | 42.35561 | 31.64868 | 37977 ft | 459 kts | 284° |
| 2026-05-05 11:35 | 42.38717 | 31.48306 | 37977 ft | 459 kts | 284° |
| 2026-05-05 11:36 | 42.41829 | 31.31825 | 37977 ft | 459 kts | 284° |
| 2026-05-05 11:36 | 42.44922 | 31.15233 | 37977 ft | 459 kts | 284° |
| 2026-05-05 11:37 | 42.48047 | 30.98465 | 37977 ft | 459 kts | 284° |
| 2026-05-05 11:37 | 42.51100 | 30.81911 | 37977 ft | 459 kts | 284° |
| 2026-05-05 11:38 | 42.54138 | 30.65232 | 37977 ft | 459 kts | 284° |
| 2026-05-05 11:38 | 42.57147 | 30.48546 | 37977 ft | 459 kts | 284° |
| 2026-05-05 11:39 | 42.60082 | 30.32105 | 37977 ft | 459 kts | 283° |
| 2026-05-05 11:39 | 42.64204 | 30.15635 | 37982 ft | 459 kts | 293° |
| 2026-05-05 11:40 | 42.69327 | 29.99941 | 37978 ft | 459 kts | 293° |
| 2026-05-05 11:40 | 42.74327 | 29.83939 | 37978 ft | 459 kts | 292° |
| 2026-05-05 11:41 | 42.79215 | 29.67987 | 37978 ft | 459 kts | 292° |
| 2026-05-05 11:41 | 42.84089 | 29.52026 | 37978 ft | 459 kts | 292° |
| 2026-05-05 11:42 | 42.88931 | 29.36080 | 37977 ft | 459 kts | 292° |
| 2026-05-05 11:42 | 42.93762 | 29.20023 | 37977 ft | 459 kts | 292° |
| 2026-05-05 11:43 | 42.98567 | 29.03980 | 37977 ft | 459 kts | 292° |
| 2026-05-05 11:43 | 43.03305 | 28.88067 | 37977 ft | 459 kts | 292° |
| 2026-05-05 11:44 | 43.09131 | 28.72605 | 37978 ft | 459 kts | 304° |
| 2026-05-05 11:44 | 43.16772 | 28.58778 | 37977 ft | 459 kts | 308° |
| 2026-05-05 11:45 | 43.24394 | 28.44869 | 37977 ft | 459 kts | 306° |
| 2026-05-05 11:45 | 43.31521 | 28.31412 | 37977 ft | 459 kts | 306° |
| 2026-05-05 11:46 | 43.39240 | 28.16729 | 37977 ft | 459 kts | 306° |
| 2026-05-05 11:46 | 43.46689 | 28.02551 | 37977 ft | 459 kts | 306° |
| 2026-05-05 11:47 | 43.54162 | 27.88271 | 37977 ft | 459 kts | 306° |
| 2026-05-05 11:47 | 43.61545 | 27.74087 | 37977 ft | 459 kts | 306° |
| 2026-05-05 11:48 | 43.72675 | 27.52576 | 37977 ft | 459 kts | 306° |
| 2026-05-05 11:48 | 43.80019 | 27.38293 | 37977 ft | 459 kts | 306° |
| 2026-05-05 11:49 | 43.87375 | 27.23882 | 37978 ft | 459 kts | 305° |
| 2026-05-05 11:49 | 43.94677 | 27.09516 | 37978 ft | 459 kts | 305° |
| 2026-05-05 11:50 | 44.02007 | 26.95045 | 37978 ft | 459 kts | 305° |
| 2026-05-05 11:50 | 44.09242 | 26.80469 | 37974 ft | 459 kts | 302° |
| 2026-05-05 11:51 | 44.15621 | 26.65198 | 37978 ft | 459 kts | 300° |
| 2026-05-05 11:51 | 44.21887 | 26.49796 | 37978 ft | 459 kts | 300° |
| 2026-05-05 11:52 | 44.28178 | 26.34423 | 37978 ft | 459 kts | 299° |
| 2026-05-05 11:52 | 44.34323 | 26.19296 | 37978 ft | 459 kts | 299° |
| 2026-05-05 11:53 | 44.40570 | 26.03855 | 37978 ft | 459 kts | 299° |
| 2026-05-05 11:53 | 44.46806 | 25.88373 | 37977 ft | 459 kts | 299° |
| 2026-05-05 11:54 | 44.53034 | 25.72824 | 37977 ft | 459 kts | 299° |
| 2026-05-05 11:54 | 44.59248 | 25.57219 | 37977 ft | 459 kts | 299° |
| 2026-05-05 11:55 | 44.65437 | 25.41585 | 37977 ft | 459 kts | 299° |
| 2026-05-05 11:55 | 44.71544 | 25.26035 | 37977 ft | 459 kts | 298° |
| 2026-05-05 11:56 | 44.77694 | 25.10324 | 37977 ft | 459 kts | 299° |
| 2026-05-05 11:56 | 44.83857 | 24.94640 | 37977 ft | 459 kts | 299° |
| 2026-05-05 11:57 | 44.89941 | 24.79021 | 37977 ft | 459 kts | 298° |
| 2026-05-05 11:57 | 44.96070 | 24.63182 | 37977 ft | 459 kts | 298° |
| 2026-05-05 11:58 | 45.02132 | 24.47431 | 37977 ft | 459 kts | 298° |
| 2026-05-05 11:58 | 45.08184 | 24.31612 | 37977 ft | 459 kts | 298° |
| 2026-05-05 11:59 | 45.14205 | 24.15815 | 37976 ft | 459 kts | 298° |
| 2026-05-05 11:59 | 45.20216 | 23.99980 | 37976 ft | 459 kts | 298° |
| 2026-05-05 12:00 | 45.26190 | 23.84067 | 37975 ft | 459 kts | 298° |
| 2026-05-05 12:00 | 45.32138 | 23.68135 | 37975 ft | 459 kts | 298° |
| 2026-05-05 12:01 | 45.38262 | 23.52188 | 37975 ft | 459 kts | 299° |
| 2026-05-05 12:01 | 45.44309 | 23.36333 | 37976 ft | 459 kts | 298° |
| 2026-05-05 12:02 | 45.50294 | 23.20433 | 37976 ft | 459 kts | 298° |
| 2026-05-05 12:02 | 45.56325 | 23.04340 | 37977 ft | 459 kts | 298° |
| 2026-05-05 12:03 | 45.62295 | 22.88341 | 37977 ft | 459 kts | 298° |
| 2026-05-05 12:03 | 45.68277 | 22.72215 | 37977 ft | 459 kts | 298° |
| 2026-05-05 12:04 | 45.74186 | 22.56188 | 37977 ft | 459 kts | 298° |
| 2026-05-05 12:04 | 45.80116 | 22.40008 | 37977 ft | 459 kts | 298° |
| 2026-05-05 12:05 | 45.85973 | 22.23904 | 37977 ft | 459 kts | 297° |
| 2026-05-05 12:05 | 45.91828 | 22.07704 | 37978 ft | 459 kts | 297° |
| 2026-05-05 12:06 | 45.97662 | 21.91500 | 37977 ft | 459 kts | 297° |
| 2026-05-05 12:06 | 46.03497 | 21.75196 | 37977 ft | 459 kts | 297° |
| 2026-05-05 12:07 | 46.09283 | 21.58923 | 37977 ft | 459 kts | 297° |
| 2026-05-05 12:07 | 46.15063 | 21.42673 | 37977 ft | 459 kts | 297° |
| 2026-05-05 12:08 | 46.20791 | 21.26365 | 37977 ft | 459 kts | 296° |
| 2026-05-05 12:08 | 46.26485 | 21.09973 | 37977 ft | 459 kts | 297° |
| 2026-05-05 12:09 | 46.32472 | 20.93728 | 37978 ft | 459 kts | 298° |
| 2026-05-05 12:09 | 46.38479 | 20.77521 | 37977 ft | 459 kts | 298° |
| 2026-05-05 12:10 | 46.44410 | 20.61254 | 37977 ft | 459 kts | 298° |
| 2026-05-05 12:10 | 46.50354 | 20.44845 | 37977 ft | 459 kts | 298° |
| 2026-05-05 12:11 | 46.56228 | 20.28521 | 37977 ft | 459 kts | 297° |
| 2026-05-05 12:11 | 46.62074 | 20.12145 | 37977 ft | 459 kts | 297° |
| 2026-05-05 12:12 | 46.67899 | 19.95768 | 37977 ft | 459 kts | 297° |
| 2026-05-05 12:12 | 46.73760 | 19.79192 | 37977 ft | 459 kts | 297° |
| 2026-05-05 12:13 | 46.79548 | 19.62721 | 37977 ft | 459 kts | 297° |
| 2026-05-05 12:13 | 46.85321 | 19.46185 | 37977 ft | 459 kts | 297° |
| 2026-05-05 12:14 | 46.91072 | 19.29601 | 37978 ft | 459 kts | 296° |
| 2026-05-05 12:14 | 46.96783 | 19.12988 | 37977 ft | 459 kts | 296° |
| 2026-05-05 12:15 | 47.02470 | 18.96385 | 37977 ft | 459 kts | 296° |
| 2026-05-05 12:15 | 47.08178 | 18.79613 | 37977 ft | 459 kts | 296° |
| 2026-05-05 12:16 | 47.13768 | 18.63156 | 37977 ft | 459 kts | 296° |
| 2026-05-05 12:16 | 47.19406 | 18.46392 | 37977 ft | 459 kts | 296° |
| 2026-05-05 12:17 | 47.25129 | 18.29669 | 37977 ft | 459 kts | 296° |
| 2026-05-05 12:17 | 47.30742 | 18.13196 | 37977 ft | 459 kts | 296° |
| 2026-05-05 12:18 | 47.36386 | 17.96472 | 37977 ft | 459 kts | 296° |
| 2026-05-05 12:18 | 47.42021 | 17.79673 | 37977 ft | 459 kts | 296° |
| 2026-05-05 12:19 | 47.47649 | 17.62783 | 37978 ft | 459 kts | 296° |
| 2026-05-05 12:19 | 47.53234 | 17.45910 | 37978 ft | 459 kts | 296° |
| 2026-05-05 12:20 | 47.58785 | 17.29010 | 37978 ft | 459 kts | 295° |
| 2026-05-05 12:20 | 47.64319 | 17.12007 | 37977 ft | 459 kts | 295° |
| 2026-05-05 12:21 | 47.69652 | 16.94984 | 37978 ft | 459 kts | 292° |
| 2026-05-05 12:21 | 47.74414 | 16.77369 | 37834 ft | 460 kts | 292° |
| 2026-05-05 12:22 | 47.76761 | 16.68660 | 37344 ft | 458 kts | 292° |
| 2026-05-05 12:22 | 47.79140 | 16.59900 | 37378 ft | 458 kts | 292° |
| 2026-05-05 12:22 | 47.81501 | 16.51193 | 37897 ft | 455 kts | 292° |
| 2026-05-05 12:22 | 47.83845 | 16.42509 | 37965 ft | 457 kts | 292° |
| 2026-05-05 12:23 | 47.88596 | 16.25027 | 37976 ft | 459 kts | 291° |
| 2026-05-05 12:23 | 47.93333 | 16.07439 | 37977 ft | 459 kts | 291° |
| 2026-05-05 12:24 | 47.98036 | 15.89836 | 37977 ft | 459 kts | 291° |
| 2026-05-05 12:24 | 48.02725 | 15.72155 | 37977 ft | 459 kts | 291° |
| 2026-05-05 12:25 | 48.07388 | 15.54439 | 37977 ft | 459 kts | 291° |
| 2026-05-05 12:25 | 48.12036 | 15.36697 | 37977 ft | 459 kts | 292° |
| 2026-05-05 12:26 | 48.16602 | 15.19205 | 37977 ft | 459 kts | 291° |
| 2026-05-05 12:26 | 48.21149 | 15.01512 | 37977 ft | 459 kts | 291° |
| 2026-05-05 12:27 | 48.25682 | 14.83743 | 37977 ft | 459 kts | 291° |
| 2026-05-05 12:27 | 48.30197 | 14.65907 | 37977 ft | 459 kts | 291° |
| 2026-05-05 12:28 | 48.34694 | 14.48003 | 37977 ft | 459 kts | 291° |
| 2026-05-05 12:28 | 48.39142 | 14.30147 | 37977 ft | 459 kts | 290° |
| 2026-05-05 12:29 | 48.43538 | 14.12310 | 37977 ft | 459 kts | 290° |
| 2026-05-05 12:29 | 48.47952 | 13.94299 | 37977 ft | 459 kts | 290° |
| 2026-05-05 12:30 | 48.52331 | 13.76285 | 37977 ft | 459 kts | 290° |
| 2026-05-05 12:30 | 48.56964 | 13.57026 | 37978 ft | 459 kts | 290° |
| 2026-05-05 12:31 | 48.59133 | 13.47984 | 37977 ft | 459 kts | 290° |
| 2026-05-05 12:31 | 48.61330 | 13.38924 | 37976 ft | 459 kts | 290° |
| 2026-05-05 12:32 | 48.63487 | 13.29952 | 37976 ft | 459 kts | 289° |
| 2026-05-05 12:32 | 48.65639 | 13.20921 | 37976 ft | 459 kts | 289° |
| 2026-05-05 12:33 | 48.67787 | 13.11879 | 37976 ft | 459 kts | 289° |
| 2026-05-05 12:33 | 48.69934 | 13.02838 | 37977 ft | 459 kts | 289° |
| 2026-05-05 12:34 | 48.72076 | 12.93776 | 37977 ft | 459 kts | 289° |
| 2026-05-05 12:34 | 48.74213 | 12.84669 | 37976 ft | 459 kts | 289° |
| 2026-05-05 12:35 | 48.76320 | 12.75631 | 37976 ft | 459 kts | 289° |
| 2026-05-05 12:35 | 48.78445 | 12.66486 | 37976 ft | 459 kts | 289° |
| 2026-05-05 12:36 | 48.80558 | 12.57390 | 37976 ft | 459 kts | 289° |
| 2026-05-05 12:36 | 48.82655 | 12.48310 | 37976 ft | 459 kts | 289° |
| 2026-05-05 12:37 | 48.84743 | 12.39196 | 37976 ft | 459 kts | 289° |
| 2026-05-05 12:37 | 48.86785 | 12.30234 | 37976 ft | 459 kts | 289° |
| 2026-05-05 12:38 | 48.89044 | 12.21239 | 37977 ft | 459 kts | 294° |
| 2026-05-05 12:38 | 48.91827 | 12.12518 | 37977 ft | 459 kts | 297° |
| 2026-05-05 12:39 | 48.94698 | 12.03944 | 37976 ft | 459 kts | 297° |
| 2026-05-05 12:39 | 48.97585 | 11.95273 | 37976 ft | 459 kts | 297° |
| 2026-05-05 12:40 | 49.00442 | 11.86642 | 37976 ft | 459 kts | 297° |
| 2026-05-05 12:40 | 49.03299 | 11.77975 | 37976 ft | 459 kts | 297° |
| 2026-05-05 12:41 | 49.06147 | 11.69303 | 37976 ft | 459 kts | 297° |
| 2026-05-05 12:41 | 49.08982 | 11.60633 | 37976 ft | 459 kts | 296° |
| 2026-05-05 12:42 | 49.11814 | 11.51980 | 37976 ft | 459 kts | 297° |
| 2026-05-05 12:42 | 49.14660 | 11.43283 | 37976 ft | 459 kts | 297° |
| 2026-05-05 12:43 | 49.17479 | 11.34588 | 37976 ft | 459 kts | 296° |
| 2026-05-05 12:43 | 49.20575 | 11.26198 | 37976 ft | 459 kts | 302° |
| 2026-05-05 12:44 | 49.24236 | 11.18267 | 37976 ft | 459 kts | 308° |
| 2026-05-05 12:44 | 49.28430 | 11.10886 | 37977 ft | 459 kts | 313° |
| 2026-05-05 12:45 | 49.32296 | 11.04648 | 37976 ft | 459 kts | 313° |
| 2026-05-05 12:45 | 49.36657 | 10.97825 | 37976 ft | 459 kts | 316° |
| 2026-05-05 12:46 | 49.41470 | 10.91475 | 37976 ft | 459 kts | 322° |
| 2026-05-05 12:46 | 49.48174 | 10.84109 | 37977 ft | 459 kts | 325° |
| 2026-05-05 12:47 | 49.58620 | 10.72998 | 37977 ft | 459 kts | 325° |
| 2026-05-05 12:47 | 49.69044 | 10.61659 | 37975 ft | 459 kts | 322° |
| 2026-05-05 12:48 | 49.78104 | 10.47954 | 37977 ft | 458 kts | 308° |
| 2026-05-05 12:48 | 49.84782 | 10.31996 | 37758 ft | 460 kts | 300° |
| 2026-05-05 12:49 | 49.88137 | 10.23497 | 37254 ft | 456 kts | 302° |
| 2026-05-05 12:49 | 49.91575 | 10.15302 | 36763 ft | 451 kts | 303° |
| 2026-05-05 12:49 | 49.94918 | 10.07432 | 36296 ft | 448 kts | 303° |
| 2026-05-05 12:49 | 49.98230 | 9.99534 | 35803 ft | 448 kts | 303° |
| 2026-05-05 12:50 | 50.01603 | 9.91398 | 35306 ft | 449 kts | 303° |
| 2026-05-05 12:50 | 50.04533 | 9.83556 | 34819 ft | 450 kts | 294° |
| 2026-05-05 12:50 | 50.05606 | 9.79082 | 34573 ft | 450 kts | 287° |
| 2026-05-05 12:50 | 50.06352 | 9.74350 | 34321 ft | 451 kts | 281° |
| 2026-05-05 12:51 | 50.06799 | 9.69512 | 34066 ft | 451 kts | 275° |
| 2026-05-05 12:51 | 50.06952 | 9.64643 | 33815 ft | 452 kts | 270° |
| 2026-05-05 12:51 | 50.06901 | 9.59807 | 33568 ft | 452 kts | 269° |
| 2026-05-05 12:51 | 50.06812 | 9.54937 | 33320 ft | 453 kts | 269° |
| 2026-05-05 12:52 | 50.06736 | 9.50049 | 33072 ft | 453 kts | 269° |
| 2026-05-05 12:52 | 50.06675 | 9.45148 | 32805 ft | 454 kts | 269° |
| 2026-05-05 12:52 | 50.06614 | 9.40209 | 32247 ft | 456 kts | 269° |
| 2026-05-05 12:52 | 50.06552 | 9.35288 | 31449 ft | 458 kts | 269° |
| 2026-05-05 12:53 | 50.06494 | 9.30855 | 30647 ft | 461 kts | 268° |
| 2026-05-05 12:53 | 50.06423 | 9.25627 | 29960 ft | 457 kts | 268° |
| 2026-05-05 12:53 | 50.06354 | 9.20714 | 29288 ft | 455 kts | 268° |
| 2026-05-05 12:53 | 50.06283 | 9.15854 | 28603 ft | 454 kts | 268° |
| 2026-05-05 12:54 | 50.06134 | 9.06122 | 27211 ft | 450 kts | 268° |
| 2026-05-05 12:54 | 50.06058 | 9.01311 | 26582 ft | 447 kts | 268° |
| 2026-05-05 12:54 | 50.05981 | 8.96585 | 26025 ft | 442 kts | 268° |
| 2026-05-05 12:55 | 50.05899 | 8.91839 | 25488 ft | 437 kts | 268° |
| 2026-05-05 12:55 | 50.05816 | 8.87190 | 24969 ft | 432 kts | 268° |
| 2026-05-05 12:55 | 50.05731 | 8.82535 | 24451 ft | 427 kts | 268° |
| 2026-05-05 12:55 | 50.05648 | 8.77972 | 23943 ft | 423 kts | 268° |
| 2026-05-05 12:56 | 50.05570 | 8.73519 | 23446 ft | 418 kts | 268° |
| 2026-05-05 12:56 | 50.05489 | 8.68965 | 22937 ft | 414 kts | 268° |
| 2026-05-05 12:56 | 50.05407 | 8.64498 | 22432 ft | 410 kts | 268° |
| 2026-05-05 12:56 | 50.05479 | 8.60145 | 21906 ft | 407 kts | 280° |
| 2026-05-05 12:57 | 50.06412 | 8.56040 | 21401 ft | 403 kts | 300° |
| 2026-05-05 12:57 | 50.08160 | 8.52685 | 20891 ft | 399 kts | 319° |
| 2026-05-05 12:57 | 50.10401 | 8.50474 | 20398 ft | 395 kts | 337° |
| 2026-05-05 12:57 | 50.12893 | 8.49100 | 19919 ft | 392 kts | 342° |
| 2026-05-05 12:58 | 50.15449 | 8.47810 | 19428 ft | 389 kts | 342° |
| 2026-05-05 12:58 | 50.18008 | 8.46498 | 18937 ft | 386 kts | 342° |
| 2026-05-05 12:58 | 50.20551 | 8.45157 | 18448 ft | 383 kts | 341° |
| 2026-05-05 12:58 | 50.23066 | 8.43807 | 17961 ft | 380 kts | 341° |
| 2026-05-05 12:59 | 50.25545 | 8.42468 | 17479 ft | 377 kts | 341° |
| 2026-05-05 12:59 | 50.27965 | 8.41020 | 17004 ft | 375 kts | 337° |
| 2026-05-05 12:59 | 50.30308 | 8.39260 | 16525 ft | 372 kts | 332° |
| 2026-05-05 13:00 | 50.34671 | 8.35078 | 15579 ft | 367 kts | 327° |
| 2026-05-05 13:00 | 50.46134 | 8.23413 | 13346 ft | 363 kts | 327° |
| 2026-05-05 13:01 | 50.64391 | 8.05217 | 9327 ft | 353 kts | 327° |
| 2026-05-05 13:01 | 50.69773 | 7.99726 | 8542 ft | 340 kts | 326° |
| 2026-05-05 13:01 | 50.71677 | 7.97750 | 8392 ft | 323 kts | 327° |
| 2026-05-05 13:01 | 50.73479 | 7.95842 | 8195 ft | 298 kts | 321° |
| 2026-05-05 13:02 | 50.74686 | 7.93493 | 7929 ft | 277 kts | 292° |
| 2026-05-05 13:02 | 50.75016 | 7.90647 | 7665 ft | 258 kts | 265° |
| 2026-05-05 13:02 | 50.74677 | 7.87960 | 7423 ft | 254 kts | 255° |
| 2026-05-05 13:02 | 50.74200 | 7.85279 | 7144 ft | 255 kts | 254° |
| 2026-05-05 13:03 | 50.73729 | 7.82583 | 6986 ft | 253 kts | 255° |
| 2026-05-05 13:03 | 50.73281 | 7.79892 | 6981 ft | 254 kts | 256° |
| 2026-05-05 13:03 | 50.72847 | 7.77195 | 6978 ft | 254 kts | 256° |
| 2026-05-05 13:03 | 50.72423 | 7.74525 | 6973 ft | 253 kts | 256° |
| 2026-05-05 13:04 | 50.72003 | 7.71856 | 6743 ft | 250 kts | 256° |
| 2026-05-05 13:04 | 50.71579 | 7.69164 | 6356 ft | 251 kts | 256° |
| 2026-05-05 13:04 | 50.71162 | 7.66526 | 5980 ft | 252 kts | 256° |
| 2026-05-05 13:04 | 50.70740 | 7.63857 | 5695 ft | 249 kts | 256° |
| 2026-05-05 13:05 | 50.70322 | 7.61220 | 5386 ft | 248 kts | 256° |
| 2026-05-05 13:05 | 50.69903 | 7.58585 | 5074 ft | 247 kts | 256° |
| 2026-05-05 13:05 | 50.69482 | 7.55942 | 4787 ft | 245 kts | 256° |
| 2026-05-05 13:05 | 50.69113 | 7.53623 | 4546 ft | 245 kts | 256° |
| 2026-05-05 13:06 | 50.68653 | 7.50737 | 4260 ft | 244 kts | 256° |
| 2026-05-05 13:06 | 50.68266 | 7.48149 | 4006 ft | 243 kts | 263° |
| 2026-05-05 13:06 | 50.68338 | 7.45506 | 3742 ft | 241 kts | 284° |
| 2026-05-05 13:06 | 50.68811 | 7.42973 | 3506 ft | 241 kts | 288° |
| 2026-05-05 13:07 | 50.69347 | 7.40525 | 3289 ft | 241 kts | 294° |
| 2026-05-05 13:07 | 50.70287 | 7.38353 | 3060 ft | 239 kts | 315° |
| 2026-05-05 13:07 | 50.71525 | 7.36625 | 2987 ft | 239 kts | 321° |
| 2026-05-05 13:07 | 50.72790 | 7.34985 | 2980 ft | 240 kts | 320° |
| 2026-05-05 13:08 | 50.73946 | 7.33401 | 2977 ft | 239 kts | 318° |
| 2026-05-05 13:08 | 50.75174 | 7.31631 | 2938 ft | 220 kts | 317° |
| 2026-05-05 13:08 | 50.76244 | 7.30061 | 2759 ft | 205 kts | 317° |
| 2026-05-05 13:08 | 50.77271 | 7.28554 | 2553 ft | 192 kts | 317° |
| 2026-05-05 13:09 | 50.78215 | 7.27174 | 2294 ft | 182 kts | 317° |
| 2026-05-05 13:09 | 50.79111 | 7.25869 | 2029 ft | 173 kts | 317° |
| 2026-05-05 13:09 | 50.79969 | 7.24621 | 1774 ft | 164 kts | 317° |
| 2026-05-05 13:09 | 50.80782 | 7.23439 | 1557 ft | 152 kts | 317° |
| 2026-05-05 13:10 | 50.81542 | 7.22336 | 1389 ft | 147 kts | 317° |
| 2026-05-05 13:10 | 50.82274 | 7.21274 | 1195 ft | 143 kts | 317° |
| 2026-05-05 13:10 | 50.82999 | 7.20222 | 1013 ft | 142 kts | 317° |
| 2026-05-05 13:10 | 50.83727 | 7.19167 | 825 ft | 142 kts | 317° |
| 2026-05-05 13:11 | 50.84441 | 7.18128 | 663 ft | 139 kts | 317° |
| 2026-05-05 13:11 | 50.85155 | 7.17089 | 454 ft | 140 kts | 317° |
| 2026-05-05 13:11 | 50.85856 | 7.16065 | 323 ft | 135 kts | 317° |
| 2026-05-05 13:11 | 50.86431 | 7.15231 | 279 ft | 93 kts | 318° |
| 2026-05-05 13:12 | 50.86704 | 7.14837 | 270 ft | 27 kts | 316° |
| 2026-05-05 13:12 | 50.86832 | 7.14604 | 263 ft | 28 kts | 300° |
| 2026-05-05 13:12 | 50.86886 | 7.14329 | 258 ft | 14 kts | 281° |
| 2026-05-05 13:12 | 50.86901 | 7.14185 | 257 ft | 14 kts | 279° |
| 2026-05-05 13:13 | 50.86946 | 7.13878 | 252 ft | 15 kts | 318° |
| 2026-05-05 13:13 | 50.87674 | 7.12833 | 248 ft | 17 kts | 317° |
| 2026-05-05 13:13 | 50.87771 | 7.12691 | 248 ft | 20 kts | 317° |
| 2026-05-05 13:13 | 50.87799 | 7.12551 | 246 ft | 11 kts | 252° |
| 2026-05-05 13:14 | 50.87734 | 7.12537 | 244 ft | 10 kts | 192° |
| 2026-05-05 13:14 | 50.87687 | 7.12453 | 241 ft | 10 kts | 257° |
| 2026-05-05 13:14 | 50.87693 | 7.12394 | 239 ft | 5 kts | 287° |
| 2026-05-05 13:14 | 50.87695 | 7.12382 | 239 ft | 1 kts | 288° |
| 2026-05-05 13:15 | 50.87696 | 7.12380 | 239 ft | 0 kts | 288° |